PORT of KOPER

País: Slovenia País: Slovenia [SI]
Latitude / Longitude: 45.56217° / 13.736355° Mostrar no mapa
Hora local:  [UTC +3]
UN/LOCODE: SIKOP
Navios actualmente no Porto: 14
Chegadas previstas: 14

Chegadas e Partidas recentes


Nome do navio
Chegada (UTC)
Chegada (LT)
Partida (UTC)
Partida (LT)
Vessel Type: Rebocador, piloto etc  HERCULES 2014-08-22 06:46:00 2014-08-22 09:46:00 2014-08-22 07:38:00 2014-08-22 10:38:00
Vessel Type: Rebocador, piloto etc  PILOTI KP 2 2014-08-22 07:18:00 2014-08-22 10:18:00 2014-08-22 07:37:00 2014-08-22 10:37:00
Vessel Type: Rebocador, piloto etc  DRAVO COSTA DORADA 2014-08-22 07:30:00 2014-08-22 10:30:00
Vessel Type: Rebocador, piloto etc  WOTAN 2014-08-22 07:19:00 2014-08-22 10:19:00
Vessel Type: Rebocador, piloto etc  DRAVO COSTA DORADA 2014-08-22 06:35:00 2014-08-22 09:35:00 2014-08-22 07:17:00 2014-08-22 10:17:00
Vessel Type: Rebocador, piloto etc  WOTAN 2014-08-22 05:21:00 2014-08-22 08:21:00 2014-08-22 07:14:00 2014-08-22 10:14:00
Vessel Type: Rebocador, piloto etc  SVOM KP 613 2014-08-22 06:38:00 2014-08-22 09:38:00
Vessel Type: Rebocador, piloto etc  SVOM KP 613 2014-08-20 07:19:00 2014-08-20 10:19:00 2014-08-22 06:33:00 2014-08-22 09:33:00
Vessel Type: Rebocador, piloto etc  DRAVO COSTA DORADA 2014-08-22 05:20:00 2014-08-22 08:20:00 2014-08-22 06:30:00 2014-08-22 09:30:00
Vessel Type: Navios de carga  HIDALGA 2014-08-22 05:42:00 2014-08-22 08:42:00

Chegadas previstas


Nome do navio
Scheduled Arrival (UTC)
Previsão de chegada (hora local)
Chegada estimada (ETA) (UTC)
Chegada estimada
Vessel Type: Navios de carga  SIDER TIS 2014-08-22 11:00:00 2014-08-22 14:00:00
CAPETAN VASSILIS 2014-08-22 12:00:00 2014-08-22 15:00:00 2014-08-23 09:27:00 2014-08-23 12:27:00
Vessel Type: Navios de carga  INGVILD 2014-08-22 12:00:00 2014-08-22 15:00:00
DON CARLOS 2014-08-23 03:00:00 2014-08-23 06:00:00 2014-08-23 06:36:00 2014-08-23 09:36:00
MSC CAITLIN 2014-08-23 08:00:00 2014-08-23 11:00:00 2014-08-23 12:33:00 2014-08-23 15:33:00
STAVANGER BREEZE 2014-08-23 14:00:00 2014-08-23 17:00:00 2014-08-23 20:52:00 2014-08-23 23:52:00
BARHOM II 2014-08-23 18:00:00 2014-08-23 21:00:00 2014-08-23 20:43:00 2014-08-23 23:43:00
FOUR COAL 2014-08-24 21:00:00 2014-08-25 00:00:00 2014-08-24 15:13:00 2014-08-24 18:13:00
WOTAN 2014-08-25 08:00:00 2014-08-25 11:00:00
Vessel Type: Navios de carga  LIM 2014-08-25 10:00:00 2014-08-25 13:00:00 2014-08-25 09:03:00 2014-08-25 12:03:00

Wind Forecast


    
Hora (UTC)
Velocidade
Direction
Temperature
2014-08-22 06:00:00 12 knots 72° 20°C
2014-08-22 09:00:00 8 knots 63° 21°C
2014-08-22 12:00:00 4 knots 60° 22°C
2014-08-22 15:00:00 2 knots 321° 22°C
2014-08-22 18:00:00 3 knots 39° 22°C
2014-08-22 21:00:00 2 knots 134° 23°C
2014-08-23 00:00:00 4 knots 229° 22°C
2014-08-23 03:00:00 5 knots 226° 22°C
2014-08-23 06:00:00 5 knots 233° 22°C
2014-08-23 09:00:00 6 knots 236° 22°C
2014-08-23 12:00:00 6 knots 235° 22°C
2014-08-23 15:00:00 4 knots 214° 22°C
2014-08-23 18:00:00 3 knots 212° 23°C
2014-08-23 21:00:00 5 knots 171° 22°C
2014-08-24 00:00:00 6 knots 184° 22°C
2014-08-24 03:00:00 5 knots 97° 22°C
2014-08-24 06:00:00 19 knots 59° 20°C